sensor_id;sensor_type;location;lat;lon;timestamp;noise_LAeq;noise_LA_min;noise_LA_max;noise_LA01;noise_LA95
52872;Laerm;40124;52.198;9.902;2023-06-22T00:00:38;43.21;40.62;47.57;;
52872;Laerm;40124;52.198;9.902;2023-06-22T00:03:06;43.01;40.13;47.55;;
52872;Laerm;40124;52.198;9.902;2023-06-22T00:05:32;64.10;40.43;83.77;;
52872;Laerm;40124;52.198;9.902;2023-06-22T00:07:57;51.11;40.53;72.22;;
52872;Laerm;40124;52.198;9.902;2023-06-22T00:10:22;56.35;39.92;77.87;;
52872;Laerm;40124;52.198;9.902;2023-06-22T00:12:47;42.93;40.13;47.20;;
52872;Laerm;40124;52.198;9.902;2023-06-22T00:15:12;43.62;40.23;47.74;;
52872;Laerm;40124;52.198;9.902;2023-06-22T00:17:37;61.48;41.22;81.94;;
52872;Laerm;40124;52.198;9.902;2023-06-22T00:20:03;43.32;40.53;48.39;;
52872;Laerm;40124;52.198;9.902;2023-06-22T00:22:30;43.25;40.71;49.24;;
52872;Laerm;40124;52.198;9.902;2023-06-22T00:24:56;43.35;40.62;49.46;;
52872;Laerm;40124;52.198;9.902;2023-06-22T00:27:21;43.25;40.33;48.29;;
52872;Laerm;40124;52.198;9.902;2023-06-22T00:29:46;43.68;40.98;48.00;;
52872;Laerm;40124;52.198;9.902;2023-06-22T00:32:11;59.40;40.96;78.92;;
52872;Laerm;40124;52.198;9.902;2023-06-22T00:34:36;42.88;39.34;47.84;;
52872;Laerm;40124;52.198;9.902;2023-06-22T00:37:01;42.82;39.81;53.05;;
52872;Laerm;40124;52.198;9.902;2023-06-22T00:39:27;43.24;39.70;47.08;;
52872;Laerm;40124;52.198;9.902;2023-06-22T00:41:52;43.36;40.13;47.00;;
52872;Laerm;40124;52.198;9.902;2023-06-22T00:44:17;42.60;39.21;47.24;;
52872;Laerm;40124;52.198;9.902;2023-06-22T00:46:43;55.79;39.34;75.04;;
52872;Laerm;40124;52.198;9.902;2023-06-22T00:49:08;44.94;40.33;59.70;;
52872;Laerm;40124;52.198;9.902;2023-06-22T00:51:33;43.44;40.03;47.32;;
52872;Laerm;40124;52.198;9.902;2023-06-22T00:53:58;60.00;40.71;81.06;;
52872;Laerm;40124;52.198;9.902;2023-06-22T00:56:24;61.88;39.58;80.06;;
52872;Laerm;40124;52.198;9.902;2023-06-22T00:58:49;43.27;40.62;48.48;;
52872;Laerm;40124;52.198;9.902;2023-06-22T01:01:17;42.96;40.03;46.91;;
52872;Laerm;40124;52.198;9.902;2023-06-22T01:03:43;43.00;39.81;47.06;;
52872;Laerm;40124;52.198;9.902;2023-06-22T01:06:09;43.75;40.98;46.82;;
52872;Laerm;40124;52.198;9.902;2023-06-22T01:08:38;44.08;41.82;47.18;;
52872;Laerm;40124;52.198;9.902;2023-06-22T01:11:27;43.65;40.98;46.91;;
52872;Laerm;40124;52.198;9.902;2023-06-22T01:16:23;59.60;41.22;79.01;;
52872;Laerm;40124;52.198;9.902;2023-06-22T01:18:50;43.75;40.80;53.06;;
52872;Laerm;40124;52.198;9.902;2023-06-22T01:21:18;55.42;40.89;76.16;;
52872;Laerm;40124;52.198;9.902;2023-06-22T01:23:50;60.43;39.46;82.18;;
52872;Laerm;40124;52.198;9.902;2023-06-22T01:28:51;42.79;39.81;46.62;;
52872;Laerm;40124;52.198;9.902;2023-06-22T01:31:18;61.28;39.46;79.88;;
52872;Laerm;40124;52.198;9.902;2023-06-22T01:33:45;55.54;40.23;76.69;;
52872;Laerm;40124;52.198;9.902;2023-06-22T01:36:11;43.79;41.06;47.67;;
52872;Laerm;40124;52.198;9.902;2023-06-22T01:38:37;57.05;41.14;77.73;;
52872;Laerm;40124;52.198;9.902;2023-06-22T01:41:03;43.41;40.96;46.89;;
52872;Laerm;40124;52.198;9.902;2023-06-22T01:43:28;43.24;40.71;46.89;;
52872;Laerm;40124;52.198;9.902;2023-06-22T01:45:54;43.12;40.13;50.24;;
52872;Laerm;40124;52.198;9.902;2023-06-22T01:48:20;61.09;41.75;80.97;;
52872;Laerm;40124;52.198;9.902;2023-06-22T01:50:45;65.83;41.06;84.61;;
52872;Laerm;40124;52.198;9.902;2023-06-22T01:53:11;57.14;40.62;77.12;;
52872;Laerm;40124;52.198;9.902;2023-06-22T01:55:36;55.88;40.33;76.02;;
52872;Laerm;40124;52.198;9.902;2023-06-22T01:58:01;49.03;40.03;59.98;;
52872;Laerm;40124;52.198;9.902;2023-06-22T02:00:26;47.92;41.06;61.32;;
52872;Laerm;40124;52.198;9.902;2023-06-22T02:05:21;67.67;41.53;87.29;;
52872;Laerm;40124;52.198;9.902;2023-06-22T02:07:56;64.66;40.53;84.20;;
52872;Laerm;40124;52.198;9.902;2023-06-22T02:10:25;54.17;40.33;68.67;;
52872;Laerm;40124;52.198;9.902;2023-06-22T02:12:51;53.38;40.71;68.40;;
52872;Laerm;40124;52.198;9.902;2023-06-22T02:15:17;57.57;39.21;77.41;;
52872;Laerm;40124;52.198;9.902;2023-06-22T02:17:42;50.19;40.71;64.08;;
52872;Laerm;40124;52.198;9.902;2023-06-22T02:20:13;49.74;40.03;63.51;;
52872;Laerm;40124;52.198;9.902;2023-06-22T02:22:38;59.72;39.46;77.80;;
52872;Laerm;40124;52.198;9.902;2023-06-22T02:25:03;53.31;39.92;70.41;;
52872;Laerm;40124;52.198;9.902;2023-06-22T02:27:29;57.74;40.13;76.98;;
52872;Laerm;40124;52.198;9.902;2023-06-22T02:29:54;49.94;39.92;64.86;;
52872;Laerm;40124;52.198;9.902;2023-06-22T02:32:19;59.92;40.43;80.54;;
52872;Laerm;40124;52.198;9.902;2023-06-22T02:34:44;58.74;40.62;77.73;;
52872;Laerm;40124;52.198;9.902;2023-06-22T02:37:12;64.99;40.33;83.55;;
52872;Laerm;40124;52.198;9.902;2023-06-22T02:39:39;60.74;40.71;78.59;;
52872;Laerm;40124;52.198;9.902;2023-06-22T02:42:05;67.18;40.53;86.90;;
52872;Laerm;40124;52.198;9.902;2023-06-22T02:44:30;62.02;41.14;79.76;;
52872;Laerm;40124;52.198;9.902;2023-06-22T02:46:55;63.89;41.06;80.10;;
52872;Laerm;40124;52.198;9.902;2023-06-22T02:49:20;57.08;41.38;76.61;;
52872;Laerm;40124;52.198;9.902;2023-06-22T02:51:46;55.15;41.30;74.05;;
52872;Laerm;40124;52.198;9.902;2023-06-22T02:54:11;61.95;41.38;77.42;;
52872;Laerm;40124;52.198;9.902;2023-06-22T02:56:36;62.80;41.53;82.18;;
52872;Laerm;40124;52.198;9.902;2023-06-22T02:59:02;57.08;41.30;76.02;;
52872;Laerm;40124;52.198;9.902;2023-06-22T03:01:27;63.33;41.89;78.67;;
52872;Laerm;40124;52.198;9.902;2023-06-22T03:03:55;64.88;43.09;81.04;;
52872;Laerm;40124;52.198;9.902;2023-06-22T03:06:20;59.74;42.03;74.47;;
52872;Laerm;40124;52.198;9.902;2023-06-22T03:08:48;62.50;42.88;78.76;;
52872;Laerm;40124;52.198;9.902;2023-06-22T03:11:13;65.66;45.80;78.85;;
52872;Laerm;40124;52.198;9.902;2023-06-22T03:13:38;62.55;42.98;77.24;;
52872;Laerm;40124;52.198;9.902;2023-06-22T03:16:04;65.56;43.68;79.41;;
52872;Laerm;40124;52.198;9.902;2023-06-22T03:18:29;64.09;43.39;80.37;;
52872;Laerm;40124;52.198;9.902;2023-06-22T03:20:54;69.32;44.80;83.90;;
52872;Laerm;40124;52.198;9.902;2023-06-22T03:23:19;66.88;44.54;80.85;;
52872;Laerm;40124;52.198;9.902;2023-06-22T03:25:44;66.16;43.54;81.39;;
52872;Laerm;40124;52.198;9.902;2023-06-22T03:28:10;68.67;44.11;85.51;;
52872;Laerm;40124;52.198;9.902;2023-06-22T03:30:35;67.16;43.44;80.53;;
52872;Laerm;40124;52.198;9.902;2023-06-22T03:33:00;68.57;43.99;83.02;;
52872;Laerm;40124;52.198;9.902;2023-06-22T03:35:25;68.65;43.29;81.76;;
52872;Laerm;40124;52.198;9.902;2023-06-22T03:37:50;68.43;43.77;79.82;;
52872;Laerm;40124;52.198;9.902;2023-06-22T03:40:15;69.57;46.55;81.59;;
52872;Laerm;40124;52.198;9.902;2023-06-22T03:42:41;69.07;45.27;80.80;;
52872;Laerm;40124;52.198;9.902;2023-06-22T03:45:06;70.26;45.17;86.02;;
52872;Laerm;40124;52.198;9.902;2023-06-22T03:47:31;67.97;44.62;80.23;;
52872;Laerm;40124;52.198;9.902;2023-06-22T03:49:57;69.71;44.94;86.16;;
52872;Laerm;40124;52.198;9.902;2023-06-22T03:52:22;70.08;47.54;83.35;;
52872;Laerm;40124;52.198;9.902;2023-06-22T03:54:47;69.18;43.54;81.91;;
52872;Laerm;40124;52.198;9.902;2023-06-22T03:57:12;68.36;44.03;81.97;;
52872;Laerm;40124;52.198;9.902;2023-06-22T03:59:37;63.59;43.89;78.27;;
52872;Laerm;40124;52.198;9.902;2023-06-22T04:02:03;68.85;46.45;83.53;;
52872;Laerm;40124;52.198;9.902;2023-06-22T04:04:28;70.58;45.91;89.52;;
52872;Laerm;40124;52.198;9.902;2023-06-22T04:06:53;68.52;46.52;81.80;;
52872;Laerm;40124;52.198;9.902;2023-06-22T04:09:18;67.75;45.60;86.73;;
52872;Laerm;40124;52.198;9.902;2023-06-22T04:11:43;68.06;45.20;82.66;;
52872;Laerm;40124;52.198;9.902;2023-06-22T04:14:09;67.73;44.43;81.32;;
52872;Laerm;40124;52.198;9.902;2023-06-22T04:16:34;69.65;44.65;81.98;;
52872;Laerm;40124;52.198;9.902;2023-06-22T04:18:59;69.93;47.10;85.81;;
52872;Laerm;40124;52.198;9.902;2023-06-22T04:21:24;69.45;46.69;81.32;;
52872;Laerm;40124;52.198;9.902;2023-06-22T04:23:49;67.40;46.45;80.49;;
52872;Laerm;40124;52.198;9.902;2023-06-22T04:26:15;72.14;45.51;86.64;;
52872;Laerm;40124;52.198;9.902;2023-06-22T04:28:40;70.40;45.60;82.38;;
52872;Laerm;40124;52.198;9.902;2023-06-22T04:31:05;70.35;51.42;81.68;;
52872;Laerm;40124;52.198;9.902;2023-06-22T04:33:31;68.78;46.64;82.13;;
52872;Laerm;40124;52.198;9.902;2023-06-22T04:35:56;73.19;46.40;87.59;;
52872;Laerm;40124;52.198;9.902;2023-06-22T04:38:26;73.06;51.04;86.23;;
52872;Laerm;40124;52.198;9.902;2023-06-22T04:40:51;71.31;46.18;85.25;;
52872;Laerm;40124;52.198;9.902;2023-06-22T04:43:16;71.31;47.08;82.05;;
52872;Laerm;40124;52.198;9.902;2023-06-22T04:45:41;70.68;45.07;86.95;;
52872;Laerm;40124;52.198;9.902;2023-06-22T04:48:06;73.00;50.67;85.69;;
52872;Laerm;40124;52.198;9.902;2023-06-22T04:50:33;71.67;47.95;84.10;;
52872;Laerm;40124;52.198;9.902;2023-06-22T04:52:58;71.54;44.35;82.69;;
52872;Laerm;40124;52.198;9.902;2023-06-22T04:55:23;74.57;53.11;88.92;;
52872;Laerm;40124;52.198;9.902;2023-06-22T04:57:50;72.94;45.75;84.98;;
52872;Laerm;40124;52.198;9.902;2023-06-22T05:00:16;71.53;44.62;83.40;;
52872;Laerm;40124;52.198;9.902;2023-06-22T05:02:43;71.57;47.65;85.37;;
52872;Laerm;40124;52.198;9.902;2023-06-22T05:05:08;70.50;48.88;83.58;;
52872;Laerm;40124;52.198;9.902;2023-06-22T05:07:33;70.28;44.58;86.29;;
52872;Laerm;40124;52.198;9.902;2023-06-22T05:09:59;72.74;50.37;86.02;;
52872;Laerm;40124;52.198;9.902;2023-06-22T05:12:24;72.57;49.23;85.72;;
52872;Laerm;40124;52.198;9.902;2023-06-22T05:14:49;71.79;49.40;85.95;;
52872;Laerm;40124;52.198;9.902;2023-06-22T05:17:14;70.35;46.67;82.67;;
52872;Laerm;40124;52.198;9.902;2023-06-22T05:19:44;73.13;53.08;88.00;;
52872;Laerm;40124;52.198;9.902;2023-06-22T05:22:13;72.49;52.63;80.38;;
52872;Laerm;40124;52.198;9.902;2023-06-22T05:24:38;72.90;53.34;88.00;;
52872;Laerm;40124;52.198;9.902;2023-06-22T05:27:03;70.68;48.95;81.02;;
52872;Laerm;40124;52.198;9.902;2023-06-22T05:29:28;72.05;49.39;85.26;;
52872;Laerm;40124;52.198;9.902;2023-06-22T05:31:54;73.75;56.21;85.66;;
52872;Laerm;40124;52.198;9.902;2023-06-22T05:34:19;71.69;49.45;85.83;;
52872;Laerm;40124;52.198;9.902;2023-06-22T05:36:44;71.85;47.77;85.77;;
52872;Laerm;40124;52.198;9.902;2023-06-22T05:39:12;73.80;49.23;86.02;;
52872;Laerm;40124;52.198;9.902;2023-06-22T05:41:38;72.49;48.40;88.21;;
52872;Laerm;40124;52.198;9.902;2023-06-22T05:44:03;72.96;50.89;90.25;;
52872;Laerm;40124;52.198;9.902;2023-06-22T05:46:29;71.76;46.57;82.83;;
52872;Laerm;40124;52.198;9.902;2023-06-22T05:48:54;72.58;51.23;90.16;;
52872;Laerm;40124;52.198;9.902;2023-06-22T05:51:19;69.92;52.86;82.61;;
52872;Laerm;40124;52.198;9.902;2023-06-22T05:53:44;70.80;51.53;82.91;;
52872;Laerm;40124;52.198;9.902;2023-06-22T05:56:11;71.88;47.79;89.23;;
52872;Laerm;40124;52.198;9.902;2023-06-22T05:58:36;69.69;48.99;85.92;;
52872;Laerm;40124;52.198;9.902;2023-06-22T06:01:02;71.12;46.91;85.38;;
52872;Laerm;40124;52.198;9.902;2023-06-22T06:03:27;72.29;45.33;85.91;;
52872;Laerm;40124;52.198;9.902;2023-06-22T06:05:53;72.00;50.75;87.39;;
52872;Laerm;40124;52.198;9.902;2023-06-22T06:08:19;71.15;45.60;90.37;;
52872;Laerm;40124;52.198;9.902;2023-06-22T06:10:44;70.68;44.90;87.54;;
52872;Laerm;40124;52.198;9.902;2023-06-22T06:13:09;69.16;49.39;81.01;;
52872;Laerm;40124;52.198;9.902;2023-06-22T06:15:34;68.23;44.94;78.43;;
52872;Laerm;40124;52.198;9.902;2023-06-22T06:17:59;70.12;43.72;86.45;;
52872;Laerm;40124;52.198;9.902;2023-06-22T06:20:25;70.85;47.98;85.70;;
52872;Laerm;40124;52.198;9.902;2023-06-22T06:22:51;72.42;50.85;87.70;;
52872;Laerm;40124;52.198;9.902;2023-06-22T06:25:16;66.89;48.03;77.42;;
52872;Laerm;40124;52.198;9.902;2023-06-22T06:27:42;70.83;46.15;86.26;;
52872;Laerm;40124;52.198;9.902;2023-06-22T06:30:08;70.72;49.55;84.92;;
52872;Laerm;40124;52.198;9.902;2023-06-22T06:32:33;69.90;43.58;84.90;;
52872;Laerm;40124;52.198;9.902;2023-06-22T06:34:59;70.55;47.88;83.46;;
52872;Laerm;40124;52.198;9.902;2023-06-22T06:37:24;70.31;49.97;86.58;;
52872;Laerm;40124;52.198;9.902;2023-06-22T06:39:49;69.93;44.94;84.39;;
52872;Laerm;40124;52.198;9.902;2023-06-22T06:42:15;70.30;46.30;85.83;;
52872;Laerm;40124;52.198;9.902;2023-06-22T06:44:40;67.27;44.51;81.33;;
52872;Laerm;40124;52.198;9.902;2023-06-22T06:47:06;70.66;47.04;86.66;;
52872;Laerm;40124;52.198;9.902;2023-06-22T06:49:31;68.85;44.90;85.93;;
52872;Laerm;40124;52.198;9.902;2023-06-22T06:51:56;72.74;46.93;87.89;;
52872;Laerm;40124;52.198;9.902;2023-06-22T06:54:21;67.23;49.82;80.43;;
52872;Laerm;40124;52.198;9.902;2023-06-22T06:56:47;70.87;44.43;86.43;;
52872;Laerm;40124;52.198;9.902;2023-06-22T06:59:13;69.62;43.94;86.09;;
52872;Laerm;40124;52.198;9.902;2023-06-22T07:01:38;70.50;46.57;86.30;;
52872;Laerm;40124;52.198;9.902;2023-06-22T07:04:03;73.06;44.65;91.58;;
52872;Laerm;40124;52.198;9.902;2023-06-22T07:06:29;68.24;44.65;85.18;;
52872;Laerm;40124;52.198;9.902;2023-06-22T07:08:57;69.33;50.58;82.36;;
52872;Laerm;40124;52.198;9.902;2023-06-22T07:11:22;69.93;46.71;83.30;;
52872;Laerm;40124;52.198;9.902;2023-06-22T07:13:47;68.91;46.86;82.17;;
52872;Laerm;40124;52.198;9.902;2023-06-22T07:16:12;65.60;42.82;79.84;;
52872;Laerm;40124;52.198;9.902;2023-06-22T07:18:39;71.23;46.50;84.92;;
52872;Laerm;40124;52.198;9.902;2023-06-22T07:21:04;66.32;44.90;77.53;;
52872;Laerm;40124;52.198;9.902;2023-06-22T07:23:31;68.04;45.20;84.32;;
52872;Laerm;40124;52.198;9.902;2023-06-22T07:25:56;68.65;43.72;83.81;;
52872;Laerm;40124;52.198;9.902;2023-06-22T07:28:21;65.67;43.29;75.96;;
52872;Laerm;40124;52.198;9.902;2023-06-22T07:30:46;69.71;44.47;85.38;;
52872;Laerm;40124;52.198;9.902;2023-06-22T07:33:12;68.33;45.99;83.42;;
52872;Laerm;40124;52.198;9.902;2023-06-22T07:35:37;68.08;42.71;83.13;;
52872;Laerm;40124;52.198;9.902;2023-06-22T07:38:02;68.81;44.03;85.44;;
52872;Laerm;40124;52.198;9.902;2023-06-22T07:40:28;68.30;49.89;80.94;;
52872;Laerm;40124;52.198;9.902;2023-06-22T07:42:53;70.62;44.31;88.98;;
52872;Laerm;40124;52.198;9.902;2023-06-22T07:45:19;66.53;42.41;78.42;;
52872;Laerm;40124;52.198;9.902;2023-06-22T07:47:44;64.88;41.68;79.10;;
52872;Laerm;40124;52.198;9.902;2023-06-22T07:50:09;65.56;43.99;78.46;;
52872;Laerm;40124;52.198;9.902;2023-06-22T07:52:34;71.32;45.04;89.07;;
52872;Laerm;40124;52.198;9.902;2023-06-22T07:55:00;70.57;43.97;85.15;;
52872;Laerm;40124;52.198;9.902;2023-06-22T07:57:25;66.99;46.13;78.83;;
52872;Laerm;40124;52.198;9.902;2023-06-22T08:00:01;69.86;48.78;83.84;;
52872;Laerm;40124;52.198;9.902;2023-06-22T08:02:29;66.53;44.31;79.95;;
52872;Laerm;40124;52.198;9.902;2023-06-22T08:04:54;69.74;45.33;84.00;;
52872;Laerm;40124;52.198;9.902;2023-06-22T08:07:19;68.13;46.33;80.86;;
52872;Laerm;40124;52.198;9.902;2023-06-22T08:09:48;64.38;41.96;77.90;;
52872;Laerm;40124;52.198;9.902;2023-06-22T08:12:14;69.51;50.00;85.63;;
52872;Laerm;40124;52.198;9.902;2023-06-22T08:14:39;64.81;42.98;76.76;;
52872;Laerm;40124;52.198;9.902;2023-06-22T08:17:04;68.78;43.29;83.59;;
52872;Laerm;40124;52.198;9.902;2023-06-22T08:19:30;63.80;42.65;81.77;;
52872;Laerm;40124;52.198;9.902;2023-06-22T08:21:55;69.71;44.69;86.01;;
52872;Laerm;40124;52.198;9.902;2023-06-22T08:24:20;69.12;45.51;79.56;;
52872;Laerm;40124;52.198;9.902;2023-06-22T08:26:45;67.26;45.14;80.80;;
52872;Laerm;40124;52.198;9.902;2023-06-22T08:29:11;68.53;44.23;86.07;;
52872;Laerm;40124;52.198;9.902;2023-06-22T08:31:36;69.24;48.67;87.55;;
52872;Laerm;40124;52.198;9.902;2023-06-22T08:34:01;70.49;44.20;86.60;;
52872;Laerm;40124;52.198;9.902;2023-06-22T08:36:26;70.53;47.50;83.34;;
52872;Laerm;40124;52.198;9.902;2023-06-22T08:38:55;66.91;41.96;78.30;;
52872;Laerm;40124;52.198;9.902;2023-06-22T08:41:27;69.38;44.07;86.22;;
52872;Laerm;40124;52.198;9.902;2023-06-22T08:43:52;69.00;44.23;84.10;;
52872;Laerm;40124;52.198;9.902;2023-06-22T08:46:18;71.42;46.30;85.12;;
52872;Laerm;40124;52.198;9.902;2023-06-22T08:48:47;69.92;45.42;88.35;;
52872;Laerm;40124;52.198;9.902;2023-06-22T08:51:12;69.64;46.15;82.34;;
52872;Laerm;40124;52.198;9.902;2023-06-22T08:53:38;69.14;47.32;84.86;;
52872;Laerm;40124;52.198;9.902;2023-06-22T08:56:04;66.90;42.16;81.46;;
52872;Laerm;40124;52.198;9.902;2023-06-22T08:58:29;65.85;42.22;79.92;;
52872;Laerm;40124;52.198;9.902;2023-06-22T09:00:54;66.57;45.45;79.06;;
52872;Laerm;40124;52.198;9.902;2023-06-22T09:03:19;67.98;48.16;83.60;;
52872;Laerm;40124;52.198;9.902;2023-06-22T09:05:45;68.86;45.01;83.90;;
52872;Laerm;40124;52.198;9.902;2023-06-22T09:08:11;71.91;45.11;85.24;;
52872;Laerm;40124;52.198;9.902;2023-06-22T09:10:36;70.22;45.72;88.57;;
52872;Laerm;40124;52.198;9.902;2023-06-22T09:13:01;70.57;49.39;84.55;;
52872;Laerm;40124;52.198;9.902;2023-06-22T09:15:26;70.70;46.93;88.85;;
52872;Laerm;40124;52.198;9.902;2023-06-22T09:17:51;69.96;47.06;87.37;;
52872;Laerm;40124;52.198;9.902;2023-06-22T09:20:19;68.81;42.82;84.19;;
52872;Laerm;40124;52.198;9.902;2023-06-22T09:22:44;68.31;42.16;83.89;;
52872;Laerm;40124;52.198;9.902;2023-06-22T09:25:09;64.16;40.13;77.25;;
52872;Laerm;40124;52.198;9.902;2023-06-22T09:27:34;66.53;41.61;80.13;;
52872;Laerm;40124;52.198;9.902;2023-06-22T09:29:59;68.32;44.35;82.41;;
52872;Laerm;40124;52.198;9.902;2023-06-22T09:32:25;68.70;44.90;79.05;;
52872;Laerm;40124;52.198;9.902;2023-06-22T09:34:50;68.05;45.23;85.10;;
52872;Laerm;40124;52.198;9.902;2023-06-22T09:37:16;71.46;46.93;87.18;;
52872;Laerm;40124;52.198;9.902;2023-06-22T09:39:41;67.84;42.29;84.34;;
52872;Laerm;40124;52.198;9.902;2023-06-22T09:42:06;68.94;43.39;84.29;;
52872;Laerm;40124;52.198;9.902;2023-06-22T09:44:31;70.89;44.58;85.78;;
52872;Laerm;40124;52.198;9.902;2023-06-22T09:46:56;71.06;43.72;89.22;;
52872;Laerm;40124;52.198;9.902;2023-06-22T09:49:22;69.09;42.98;81.53;;
52872;Laerm;40124;52.198;9.902;2023-06-22T09:51:47;69.73;52.35;85.39;;
52872;Laerm;40124;52.198;9.902;2023-06-22T09:54:12;68.96;46.15;81.36;;
52872;Laerm;40124;52.198;9.902;2023-06-22T09:56:37;72.64;46.25;90.19;;
52872;Laerm;40124;52.198;9.902;2023-06-22T09:59:02;68.22;46.48;80.39;;
52872;Laerm;40124;52.198;9.902;2023-06-22T10:01:28;69.39;44.11;85.45;;
52872;Laerm;40124;52.198;9.902;2023-06-22T10:03:53;71.42;44.07;86.15;;
52872;Laerm;40124;52.198;9.902;2023-06-22T10:06:20;66.55;46.80;78.49;;
52872;Laerm;40124;52.198;9.902;2023-06-22T10:08:46;69.91;45.07;83.38;;
52872;Laerm;40124;52.198;9.902;2023-06-22T10:11:11;66.95;44.58;78.67;;
52872;Laerm;40124;52.198;9.902;2023-06-22T10:13:36;68.95;46.57;83.57;;
52872;Laerm;40124;52.198;9.902;2023-06-22T10:16:01;68.86;46.38;83.56;;
52872;Laerm;40124;52.198;9.902;2023-06-22T10:18:26;66.41;44.11;79.47;;
52872;Laerm;40124;52.198;9.902;2023-06-22T10:20:52;68.57;45.04;78.96;;
52872;Laerm;40124;52.198;9.902;2023-06-22T10:23:17;71.07;43.24;87.02;;
52872;Laerm;40124;52.198;9.902;2023-06-22T10:25:42;67.35;47.18;77.13;;
52872;Laerm;40124;52.198;9.902;2023-06-22T10:28:08;67.87;42.22;81.36;;
52872;Laerm;40124;52.198;9.902;2023-06-22T10:30:33;67.38;45.39;78.60;;
52872;Laerm;40124;52.198;9.902;2023-06-22T10:32:58;70.59;45.77;85.86;;
52872;Laerm;40124;52.198;9.902;2023-06-22T10:35:23;71.08;50.98;84.88;;
52872;Laerm;40124;52.198;9.902;2023-06-22T10:37:48;71.44;45.42;85.93;;
52872;Laerm;40124;52.198;9.902;2023-06-22T10:40:14;70.18;45.23;84.82;;
52872;Laerm;40124;52.198;9.902;2023-06-22T10:42:40;70.63;49.06;84.14;;
52872;Laerm;40124;52.198;9.902;2023-06-22T10:45:05;70.51;44.47;85.89;;
52872;Laerm;40124;52.198;9.902;2023-06-22T10:47:31;69.05;44.58;82.62;;
52872;Laerm;40124;52.198;9.902;2023-06-22T10:49:56;72.36;48.20;84.78;;
52872;Laerm;40124;52.198;9.902;2023-06-22T10:52:21;70.42;48.99;86.36;;
52872;Laerm;40124;52.198;9.902;2023-06-22T10:54:46;69.66;45.33;81.58;;
52872;Laerm;40124;52.198;9.902;2023-06-22T10:57:11;67.96;43.86;80.53;;
52872;Laerm;40124;52.198;9.902;2023-06-22T10:59:36;71.30;46.66;85.77;;
52872;Laerm;40124;52.198;9.902;2023-06-22T11:02:02;68.86;46.98;79.45;;
52872;Laerm;40124;52.198;9.902;2023-06-22T11:04:27;69.30;47.74;80.91;;
52872;Laerm;40124;52.198;9.902;2023-06-22T11:06:52;69.77;47.95;82.51;;
52872;Laerm;40124;52.198;9.902;2023-06-22T11:09:17;70.12;44.11;83.50;;
52872;Laerm;40124;52.198;9.902;2023-06-22T11:11:46;67.62;47.65;78.41;;
52872;Laerm;40124;52.198;9.902;2023-06-22T11:14:11;69.83;45.36;82.01;;
52872;Laerm;40124;52.198;9.902;2023-06-22T11:16:37;70.05;48.83;80.60;;
52872;Laerm;40124;52.198;9.902;2023-06-22T11:19:02;69.85;47.20;83.28;;
52872;Laerm;40124;52.198;9.902;2023-06-22T11:21:28;69.37;45.63;82.69;;
52872;Laerm;40124;52.198;9.902;2023-06-22T11:23:53;70.87;43.09;89.05;;
52872;Laerm;40124;52.198;9.902;2023-06-22T11:26:18;68.12;42.65;82.56;;
52872;Laerm;40124;52.198;9.902;2023-06-22T11:28:43;70.56;43.63;85.85;;
52872;Laerm;40124;52.198;9.902;2023-06-22T11:31:08;69.05;43.14;81.10;;
52872;Laerm;40124;52.198;9.902;2023-06-22T11:33:34;68.54;45.17;79.53;;
52872;Laerm;40124;52.198;9.902;2023-06-22T11:35:59;71.09;48.20;84.62;;
52872;Laerm;40124;52.198;9.902;2023-06-22T11:38:25;70.58;47.44;84.12;;
52872;Laerm;40124;52.198;9.902;2023-06-22T11:40:50;70.13;45.66;83.03;;
52872;Laerm;40124;52.198;9.902;2023-06-22T11:43:15;68.52;48.00;81.74;;
52872;Laerm;40124;52.198;9.902;2023-06-22T11:45:40;70.06;43.94;84.92;;
52872;Laerm;40124;52.198;9.902;2023-06-22T11:48:05;70.48;48.71;80.99;;
52872;Laerm;40124;52.198;9.902;2023-06-22T11:50:31;66.40;43.54;82.04;;
52872;Laerm;40124;52.198;9.902;2023-06-22T11:53:00;72.67;47.04;86.01;;
52872;Laerm;40124;52.198;9.902;2023-06-22T11:55:25;69.71;50.09;80.74;;
52872;Laerm;40124;52.198;9.902;2023-06-22T11:57:53;69.97;44.11;83.73;;
52872;Laerm;40124;52.198;9.902;2023-06-22T12:00:18;72.09;45.42;87.68;;
52872;Laerm;40124;52.198;9.902;2023-06-22T12:02:44;66.96;41.22;79.73;;
52872;Laerm;40124;52.198;9.902;2023-06-22T12:05:10;66.17;42.03;83.37;;
52872;Laerm;40124;52.198;9.902;2023-06-22T12:07:35;72.24;44.39;91.45;;
52872;Laerm;40124;52.198;9.902;2023-06-22T12:10:01;72.67;54.46;87.62;;
52872;Laerm;40124;52.198;9.902;2023-06-22T12:12:26;71.86;50.97;87.77;;
52872;Laerm;40124;52.198;9.902;2023-06-22T12:14:51;71.53;47.03;87.42;;
52872;Laerm;40124;52.198;9.902;2023-06-22T12:17:16;69.24;42.22;85.39;;
52872;Laerm;40124;52.198;9.902;2023-06-22T12:19:41;70.24;48.23;81.07;;
52872;Laerm;40124;52.198;9.902;2023-06-22T12:22:07;72.96;42.82;92.51;;
52872;Laerm;40124;52.198;9.902;2023-06-22T12:24:32;69.46;46.55;79.84;;
52872;Laerm;40124;52.198;9.902;2023-06-22T12:26:57;69.05;44.07;79.21;;
52872;Laerm;40124;52.198;9.902;2023-06-22T12:29:22;71.98;46.45;89.28;;
52872;Laerm;40124;52.198;9.902;2023-06-22T12:31:47;69.89;45.66;86.49;;
52872;Laerm;40124;52.198;9.902;2023-06-22T12:34:12;70.47;45.51;86.54;;
52872;Laerm;40124;52.198;9.902;2023-06-22T12:36:37;68.20;43.72;81.12;;
52872;Laerm;40124;52.198;9.902;2023-06-22T12:39:03;69.84;45.39;85.79;;
52872;Laerm;40124;52.198;9.902;2023-06-22T12:41:28;73.45;44.94;87.67;;
52872;Laerm;40124;52.198;9.902;2023-06-22T12:43:53;70.82;44.80;83.25;;
52872;Laerm;40124;52.198;9.902;2023-06-22T12:46:18;68.17;42.98;79.06;;
52872;Laerm;40124;52.198;9.902;2023-06-22T12:48:43;70.94;48.61;83.38;;
52872;Laerm;40124;52.198;9.902;2023-06-22T12:51:09;72.86;51.79;89.26;;
52872;Laerm;40124;52.198;9.902;2023-06-22T12:53:34;70.00;44.87;80.01;;
52872;Laerm;40124;52.198;9.902;2023-06-22T12:55:59;71.09;47.79;85.18;;
52872;Laerm;40124;52.198;9.902;2023-06-22T12:58:24;71.36;44.47;87.29;;
52872;Laerm;40124;52.198;9.902;2023-06-22T13:00:49;67.54;41.06;78.43;;
52872;Laerm;40124;52.198;9.902;2023-06-22T13:03:15;69.99;49.71;80.38;;
52872;Laerm;40124;52.198;9.902;2023-06-22T13:05:40;69.76;44.80;81.20;;
52872;Laerm;40124;52.198;9.902;2023-06-22T13:08:05;72.18;47.30;87.29;;
52872;Laerm;40124;52.198;9.902;2023-06-22T13:10:30;69.89;46.48;79.39;;
52872;Laerm;40124;52.198;9.902;2023-06-22T13:12:55;70.51;49.92;79.79;;
52872;Laerm;40124;52.198;9.902;2023-06-22T13:15:25;71.01;53.77;82.29;;
52872;Laerm;40124;52.198;9.902;2023-06-22T13:17:50;70.27;52.13;79.73;;
52872;Laerm;40124;52.198;9.902;2023-06-22T13:20:16;70.50;45.36;81.19;;
52872;Laerm;40124;52.198;9.902;2023-06-22T13:22:41;73.07;45.07;86.72;;
52872;Laerm;40124;52.198;9.902;2023-06-22T13:25:08;68.41;45.51;78.45;;
52872;Laerm;40124;52.198;9.902;2023-06-22T13:27:36;71.28;47.16;85.56;;
52872;Laerm;40124;52.198;9.902;2023-06-22T13:30:02;69.76;46.64;81.02;;
52872;Laerm;40124;52.198;9.902;2023-06-22T13:32:27;70.42;46.91;81.02;;
52872;Laerm;40124;52.198;9.902;2023-06-22T13:34:53;72.98;47.48;87.93;;
52872;Laerm;40124;52.198;9.902;2023-06-22T13:37:18;68.26;43.86;86.53;;
52872;Laerm;40124;52.198;9.902;2023-06-22T13:39:44;69.06;45.36;79.08;;
52872;Laerm;40124;52.198;9.902;2023-06-22T13:42:09;70.39;49.43;82.07;;